sensor_id;sensor_type;location;lat;lon;timestamp;pressure;altitude;pressure_sealevel;temperature;humidity
62849;BME280;48941;49.516;8.286;2022-12-24T00:00:21;99793.16;;;10.82;95.21
62849;BME280;48941;49.516;8.286;2022-12-24T00:02:50;99795.00;;;10.81;94.63
62849;BME280;48941;49.516;8.286;2022-12-24T00:05:18;99795.25;;;10.78;93.94
62849;BME280;48941;49.516;8.286;2022-12-24T00:07:46;99795.56;;;10.85;93.28
62849;BME280;48941;49.516;8.286;2022-12-24T00:10:14;99795.56;;;10.85;91.94
62849;BME280;48941;49.516;8.286;2022-12-24T00:12:43;99804.66;;;10.82;91.93
62849;BME280;48941;49.516;8.286;2022-12-24T00:15:11;99805.53;;;10.83;91.76
62849;BME280;48941;49.516;8.286;2022-12-24T00:17:39;99807.31;;;10.82;91.36
62849;BME280;48941;49.516;8.286;2022-12-24T00:20:08;99816.88;;;10.75;92.27
62849;BME280;48941;49.516;8.286;2022-12-24T00:22:36;99818.69;;;10.74;90.02
62849;BME280;48941;49.516;8.286;2022-12-24T00:25:05;99823.16;;;10.74;90.35
62849;BME280;48941;49.516;8.286;2022-12-24T00:27:33;99824.16;;;10.73;89.95
62849;BME280;48941;49.516;8.286;2022-12-24T00:30:02;99834.50;;;10.66;90.26
62849;BME280;48941;49.516;8.286;2022-12-24T00:32:30;99841.53;;;10.67;88.81
62849;BME280;48941;49.516;8.286;2022-12-24T00:34:58;99833.25;;;10.61;89.23
62849;BME280;48941;49.516;8.286;2022-12-24T00:37:26;99843.44;;;10.55;89.02
62849;BME280;48941;49.516;8.286;2022-12-24T00:39:53;99858.03;;;10.51;88.73
62849;BME280;48941;49.516;8.286;2022-12-24T00:42:21;99868.09;;;10.48;89.10
62849;BME280;48941;49.516;8.286;2022-12-24T00:44:49;99873.00;;;10.43;89.91
62849;BME280;48941;49.516;8.286;2022-12-24T00:47:18;99866.09;;;10.40;89.10
62849;BME280;48941;49.516;8.286;2022-12-24T00:49:46;99877.16;;;10.35;89.58
62849;BME280;48941;49.516;8.286;2022-12-24T00:52:14;99878.41;;;10.31;89.69
62849;BME280;48941;49.516;8.286;2022-12-24T00:54:42;99881.19;;;10.30;88.54
62849;BME280;48941;49.516;8.286;2022-12-24T00:57:10;99878.06;;;10.25;88.00
62849;BME280;48941;49.516;8.286;2022-12-24T00:59:37;99886.38;;;10.31;87.42
62849;BME280;48941;49.516;8.286;2022-12-24T01:02:05;99885.78;;;10.28;86.58
62849;BME280;48941;49.516;8.286;2022-12-24T01:04:35;99893.06;;;10.26;86.58
62849;BME280;48941;49.516;8.286;2022-12-24T01:07:20;99908.19;;;10.25;86.53
62849;BME280;48941;49.516;8.286;2022-12-24T01:09:48;99902.28;;;10.22;86.62
62849;BME280;48941;49.516;8.286;2022-12-24T01:12:15;99900.31;;;10.24;86.02
62849;BME280;48941;49.516;8.286;2022-12-24T01:14:43;99896.97;;;10.22;86.45
62849;BME280;48941;49.516;8.286;2022-12-24T01:17:11;99910.66;;;10.17;87.62
62849;BME280;48941;49.516;8.286;2022-12-24T01:19:40;99904.88;;;10.12;87.17
62849;BME280;48941;49.516;8.286;2022-12-24T01:22:08;99912.28;;;10.08;88.89
62849;BME280;48941;49.516;8.286;2022-12-24T01:24:36;99913.69;;;10.03;88.28
62849;BME280;48941;49.516;8.286;2022-12-24T01:27:04;99903.41;;;9.98;88.78
62849;BME280;48941;49.516;8.286;2022-12-24T01:29:32;99922.31;;;9.95;90.72
62849;BME280;48941;49.516;8.286;2022-12-24T01:31:59;99923.66;;;9.89;90.85
62849;BME280;48941;49.516;8.286;2022-12-24T01:34:27;99921.84;;;9.90;90.73
62849;BME280;48941;49.516;8.286;2022-12-24T01:36:56;99931.38;;;9.92;90.28
62849;BME280;48941;49.516;8.286;2022-12-24T01:39:24;99936.56;;;9.94;90.19
62849;BME280;48941;49.516;8.286;2022-12-24T01:41:52;99945.53;;;9.93;91.24
62849;BME280;48941;49.516;8.286;2022-12-24T01:44:40;99952.47;;;10.05;89.21
62849;BME280;48941;49.516;8.286;2022-12-24T01:47:11;99964.22;;;10.03;90.09
62849;BME280;48941;49.516;8.286;2022-12-24T01:49:42;99954.84;;;10.08;90.02
62849;BME280;48941;49.516;8.286;2022-12-24T01:52:16;99966.22;;;10.10;88.98
62849;BME280;48941;49.516;8.286;2022-12-24T01:54:48;99965.50;;;10.08;88.98
62849;BME280;48941;49.516;8.286;2022-12-24T01:57:20;99964.34;;;10.01;90.01
62849;BME280;48941;49.516;8.286;2022-12-24T01:59:52;99962.09;;;9.96;89.31
62849;BME280;48941;49.516;8.286;2022-12-24T02:02:24;99976.59;;;9.92;89.77
62849;BME280;48941;49.516;8.286;2022-12-24T02:04:55;99978.53;;;9.90;89.87
62849;BME280;48941;49.516;8.286;2022-12-24T02:07:26;99988.34;;;9.90;90.96
62849;BME280;48941;49.516;8.286;2022-12-24T02:09:56;99975.56;;;9.84;91.13
62849;BME280;48941;49.516;8.286;2022-12-24T02:12:24;99967.47;;;9.85;90.79
62849;BME280;48941;49.516;8.286;2022-12-24T02:14:54;99968.81;;;9.80;91.27
62849;BME280;48941;49.516;8.286;2022-12-24T02:17:28;99969.09;;;9.76;92.02
62849;BME280;48941;49.516;8.286;2022-12-24T02:20:17;99966.44;;;9.76;92.23
62849;BME280;48941;49.516;8.286;2022-12-24T02:23:07;99966.34;;;9.88;91.91
62849;BME280;48941;49.516;8.286;2022-12-24T02:25:57;99979.25;;;9.92;91.63
62849;BME280;48941;49.516;8.286;2022-12-24T02:28:37;99981.56;;;9.97;91.05
62849;BME280;48941;49.516;8.286;2022-12-24T02:31:15;99979.72;;;9.97;91.44
62849;BME280;48941;49.516;8.286;2022-12-24T02:33:54;99989.66;;;9.95;90.62
62849;BME280;48941;49.516;8.286;2022-12-24T02:36:28;99998.47;;;9.96;90.53
62849;BME280;48941;49.516;8.286;2022-12-24T02:39:01;99999.66;;;10.03;90.17
62849;BME280;48941;49.516;8.286;2022-12-24T02:41:32;99989.53;;;9.97;90.14
62849;BME280;48941;49.516;8.286;2022-12-24T02:44:23;100000.88;;;9.99;90.22
62849;BME280;48941;49.516;8.286;2022-12-24T02:46:55;99993.75;;;10.00;90.14
62849;BME280;48941;49.516;8.286;2022-12-24T02:49:23;99990.25;;;9.99;90.43
62849;BME280;48941;49.516;8.286;2022-12-24T02:51:51;99994.47;;;10.02;90.20
62849;BME280;48941;49.516;8.286;2022-12-24T02:54:19;99988.19;;;10.03;89.87
62849;BME280;48941;49.516;8.286;2022-12-24T02:56:57;99996.53;;;9.98;90.64
62849;BME280;48941;49.516;8.286;2022-12-24T02:59:55;100002.44;;;10.02;90.48
62849;BME280;48941;49.516;8.286;2022-12-24T03:02:39;99990.38;;;9.97;90.23
62849;BME280;48941;49.516;8.286;2022-12-24T03:05:17;100009.63;;;9.90;91.46
62849;BME280;48941;49.516;8.286;2022-12-24T03:07:56;99998.53;;;9.85;91.08
62849;BME280;48941;49.516;8.286;2022-12-24T03:10:33;100003.88;;;9.85;91.49
62849;BME280;48941;49.516;8.286;2022-12-24T03:13:07;100012.09;;;9.82;92.11
62849;BME280;48941;49.516;8.286;2022-12-24T03:15:37;100015.34;;;9.85;91.65
62849;BME280;48941;49.516;8.286;2022-12-24T03:18:09;100006.25;;;9.88;92.10
62849;BME280;48941;49.516;8.286;2022-12-24T03:20:40;100002.75;;;9.87;92.14
62849;BME280;48941;49.516;8.286;2022-12-24T03:23:08;99999.25;;;9.87;92.07
62849;BME280;48941;49.516;8.286;2022-12-24T03:25:39;100004.81;;;9.84;92.48
62849;BME280;48941;49.516;8.286;2022-12-24T03:28:08;100010.25;;;9.82;92.41
62849;BME280;48941;49.516;8.286;2022-12-24T03:30:38;100023.72;;;9.81;92.76
62849;BME280;48941;49.516;8.286;2022-12-24T03:33:08;100019.22;;;9.81;93.15
62849;BME280;48941;49.516;8.286;2022-12-24T03:35:36;100023.19;;;9.87;93.04
62849;BME280;48941;49.516;8.286;2022-12-24T03:38:04;100027.53;;;9.88;93.20
62849;BME280;48941;49.516;8.286;2022-12-24T03:40:32;100025.47;;;9.91;93.18
62849;BME280;48941;49.516;8.286;2022-12-24T03:43:00;100024.47;;;9.92;93.42
62849;BME280;48941;49.516;8.286;2022-12-24T03:45:28;100033.06;;;9.96;93.23
62849;BME280;48941;49.516;8.286;2022-12-24T03:47:56;100028.09;;;10.03;93.34
62849;BME280;48941;49.516;8.286;2022-12-24T03:50:25;100020.66;;;10.06;93.20
62849;BME280;48941;49.516;8.286;2022-12-24T03:52:53;100029.25;;;10.10;93.16
62849;BME280;48941;49.516;8.286;2022-12-24T03:55:21;100040.59;;;10.12;92.83
62849;BME280;48941;49.516;8.286;2022-12-24T03:57:49;100036.88;;;10.14;92.68
62849;BME280;48941;49.516;8.286;2022-12-24T04:00:18;100028.72;;;10.16;92.22
62849;BME280;48941;49.516;8.286;2022-12-24T04:02:46;100037.78;;;10.25;91.96
62849;BME280;48941;49.516;8.286;2022-12-24T04:05:16;100038.34;;;10.28;91.93
62849;BME280;48941;49.516;8.286;2022-12-24T04:07:46;100036.66;;;10.27;91.57
62849;BME280;48941;49.516;8.286;2022-12-24T04:10:15;100042.09;;;10.26;92.04
62849;BME280;48941;49.516;8.286;2022-12-24T04:12:43;100042.38;;;10.23;92.28
62849;BME280;48941;49.516;8.286;2022-12-24T04:15:11;100038.59;;;10.25;92.13
62849;BME280;48941;49.516;8.286;2022-12-24T04:17:38;100040.03;;;10.29;91.93
62849;BME280;48941;49.516;8.286;2022-12-24T04:20:07;100047.44;;;10.26;92.21
62849;BME280;48941;49.516;8.286;2022-12-24T04:22:35;100053.03;;;10.23;92.99
62849;BME280;48941;49.516;8.286;2022-12-24T04:25:06;100061.84;;;10.23;92.72
62849;BME280;48941;49.516;8.286;2022-12-24T04:27:34;100061.97;;;10.22;93.05
62849;BME280;48941;49.516;8.286;2022-12-24T04:30:02;100066.06;;;10.26;93.02
62849;BME280;48941;49.516;8.286;2022-12-24T04:32:30;100066.91;;;10.26;92.72
62849;BME280;48941;49.516;8.286;2022-12-24T04:34:57;100050.09;;;10.26;93.49
62849;BME280;48941;49.516;8.286;2022-12-24T04:37:25;100050.22;;;10.24;93.87
62849;BME280;48941;49.516;8.286;2022-12-24T04:39:53;100065.34;;;10.24;93.98
62849;BME280;48941;49.516;8.286;2022-12-24T04:42:23;100067.06;;;10.25;94.20
62849;BME280;48941;49.516;8.286;2022-12-24T04:44:50;100054.09;;;10.20;94.06
62849;BME280;48941;49.516;8.286;2022-12-24T04:47:18;100060.53;;;10.17;94.47
62849;BME280;48941;49.516;8.286;2022-12-24T04:49:46;100061.53;;;10.16;94.69
62849;BME280;48941;49.516;8.286;2022-12-24T04:52:14;100065.88;;;10.17;94.98
62849;BME280;48941;49.516;8.286;2022-12-24T04:54:42;100061.53;;;10.16;94.77
62849;BME280;48941;49.516;8.286;2022-12-24T04:57:09;100057.28;;;10.14;95.46
62849;BME280;48941;49.516;8.286;2022-12-24T04:59:39;100059.00;;;10.15;95.13
62849;BME280;48941;49.516;8.286;2022-12-24T05:02:06;100061.53;;;10.16;95.41
62849;BME280;48941;49.516;8.286;2022-12-24T05:04:34;100060.81;;;10.14;95.36
62849;BME280;48941;49.516;8.286;2022-12-24T05:07:02;100053.06;;;10.11;95.57
62849;BME280;48941;49.516;8.286;2022-12-24T05:09:30;100060.34;;;10.09;96.34
62849;BME280;48941;49.516;8.286;2022-12-24T05:11:58;100052.59;;;10.06;96.19
62849;BME280;48941;49.516;8.286;2022-12-24T05:14:26;100062.28;;;10.07;96.55
62849;BME280;48941;49.516;8.286;2022-12-24T05:16:55;100074.59;;;10.08;96.40
62849;BME280;48941;49.516;8.286;2022-12-24T05:19:23;100072.94;;;10.07;96.22
62849;BME280;48941;49.516;8.286;2022-12-24T05:21:51;100066.06;;;10.05;96.14
62849;BME280;48941;49.516;8.286;2022-12-24T05:24:33;100064.22;;;10.05;95.71
62849;BME280;48941;49.516;8.286;2022-12-24T05:27:18;100063.84;;;10.10;95.57
62849;BME280;48941;49.516;8.286;2022-12-24T05:29:46;100058.41;;;10.11;95.22
62849;BME280;48941;49.516;8.286;2022-12-24T05:32:15;100064.31;;;10.15;94.63
62849;BME280;48941;49.516;8.286;2022-12-24T05:34:43;100057.41;;;10.12;94.42
62849;BME280;48941;49.516;8.286;2022-12-24T05:37:11;100067.94;;;10.14;94.07
62849;BME280;48941;49.516;8.286;2022-12-24T05:39:39;100073.53;;;10.11;94.48
62849;BME280;48941;49.516;8.286;2022-12-24T05:42:07;100082.47;;;10.10;94.52
62849;BME280;48941;49.516;8.286;2022-12-24T05:44:34;100086.22;;;10.07;94.51
62849;BME280;48941;49.516;8.286;2022-12-24T05:47:03;100088.41;;;10.02;94.90
62849;BME280;48941;49.516;8.286;2022-12-24T05:49:32;100096.66;;;9.99;95.09
62849;BME280;48941;49.516;8.286;2022-12-24T05:52:00;100104.06;;;9.95;95.42
62849;BME280;48941;49.516;8.286;2022-12-24T05:54:28;100110.22;;;9.96;95.34
62849;BME280;48941;49.516;8.286;2022-12-24T05:56:55;100109.13;;;9.99;94.75
62849;BME280;48941;49.516;8.286;2022-12-24T05:59:23;100110.09;;;9.97;95.16
62849;BME280;48941;49.516;8.286;2022-12-24T06:01:51;100110.09;;;9.97;95.34
62849;BME280;48941;49.516;8.286;2022-12-24T06:04:19;100111.78;;;9.99;95.03
62849;BME280;48941;49.516;8.286;2022-12-24T06:06:55;100104.78;;;9.97;94.84
62849;BME280;48941;49.516;8.286;2022-12-24T06:09:23;100103.94;;;9.97;94.60
62849;BME280;48941;49.516;8.286;2022-12-24T06:11:51;100107.56;;;9.96;94.98
62849;BME280;48941;49.516;8.286;2022-12-24T06:14:19;100104.78;;;9.97;94.67
62849;BME280;48941;49.516;8.286;2022-12-24T06:16:46;100119.19;;;9.95;94.37
62849;BME280;48941;49.516;8.286;2022-12-24T06:19:14;100110.22;;;9.96;94.95
62849;BME280;48941;49.516;8.286;2022-12-24T06:21:42;100122.44;;;9.99;94.44
62849;BME280;48941;49.516;8.286;2022-12-24T06:24:11;100108.88;;;10.02;94.19
62849;BME280;48941;49.516;8.286;2022-12-24T06:26:39;100121.72;;;9.96;94.28
62849;BME280;48941;49.516;8.286;2022-12-24T06:29:07;100122.28;;;10.00;94.36
62849;BME280;48941;49.516;8.286;2022-12-24T06:31:35;100124.38;;;9.96;94.35
62849;BME280;48941;49.516;8.286;2022-12-24T06:34:03;100123.41;;;9.97;94.09
62849;BME280;48941;49.516;8.286;2022-12-24T06:36:31;100134.16;;;9.96;94.13
62849;BME280;48941;49.516;8.286;2022-12-24T06:38:59;100138.75;;;9.94;94.23
62849;BME280;48941;49.516;8.286;2022-12-24T06:41:28;100139.25;;;9.88;94.91
62849;BME280;48941;49.516;8.286;2022-12-24T06:43:56;100150.72;;;9.88;94.91
62849;BME280;48941;49.516;8.286;2022-12-24T06:46:23;100147.13;;;9.89;94.89
62849;BME280;48941;49.516;8.286;2022-12-24T06:48:51;100155.81;;;9.91;94.42
62849;BME280;48941;49.516;8.286;2022-12-24T06:51:20;100150.38;;;9.93;94.56
62849;BME280;48941;49.516;8.286;2022-12-24T06:53:48;100163.81;;;9.91;94.50
62849;BME280;48941;49.516;8.286;2022-12-24T06:56:18;100166.34;;;9.93;94.79
62849;BME280;48941;49.516;8.286;2022-12-24T06:58:48;100168.13;;;9.92;94.82
62849;BME280;48941;49.516;8.286;2022-12-24T07:01:17;100183.38;;;9.90;94.90
62849;BME280;48941;49.516;8.286;2022-12-24T07:03:46;100178.94;;;9.91;95.04
62849;BME280;48941;49.516;8.286;2022-12-24T07:06:19;100186.66;;;9.94;94.30
62849;BME280;48941;49.516;8.286;2022-12-24T07:08:48;100183.13;;;10.05;93.38
62849;BME280;48941;49.516;8.286;2022-12-24T07:11:16;100190.72;;;10.09;92.80
62849;BME280;48941;49.516;8.286;2022-12-24T07:13:44;100180.81;;;10.11;92.99
62849;BME280;48941;49.516;8.286;2022-12-24T07:16:14;100179.97;;;10.11;92.67
62849;BME280;48941;49.516;8.286;2022-12-24T07:18:42;100178.16;;;10.11;92.77
62849;BME280;48941;49.516;8.286;2022-12-24T07:21:10;100178.63;;;10.16;92.33
62849;BME280;48941;49.516;8.286;2022-12-24T07:23:38;100184.19;;;10.13;92.40
62849;BME280;48941;49.516;8.286;2022-12-24T07:26:06;100178.03;;;10.13;91.87
62849;BME280;48941;49.516;8.286;2022-12-24T07:28:34;100186.97;;;10.12;92.43
62849;BME280;48941;49.516;8.286;2022-12-24T07:31:02;100189.91;;;10.09;92.65
62849;BME280;48941;49.516;8.286;2022-12-24T07:33:31;100193.50;;;10.08;92.27
62849;BME280;48941;49.516;8.286;2022-12-24T07:36:01;100184.09;;;10.04;92.88
62849;BME280;48941;49.516;8.286;2022-12-24T07:38:30;100187.59;;;10.04;92.38
62849;BME280;48941;49.516;8.286;2022-12-24T07:40:58;100201.88;;;10.03;93.01
62849;BME280;48941;49.516;8.286;2022-12-24T07:43:27;100201.75;;;10.05;92.91
62849;BME280;48941;49.516;8.286;2022-12-24T07:45:55;100207.91;;;10.05;92.49
62849;BME280;48941;49.516;8.286;2022-12-24T07:48:24;100200.88;;;10.04;93.14
62849;BME280;48941;49.516;8.286;2022-12-24T07:50:54;100217.72;;;10.05;92.70
62849;BME280;48941;49.516;8.286;2022-12-24T07:53:24;100208.03;;;10.04;93.14
62849;BME280;48941;49.516;8.286;2022-12-24T07:55:52;100226.66;;;10.04;92.99
62849;BME280;48941;49.516;8.286;2022-12-24T07:58:20;100224.50;;;10.09;92.88
62849;BME280;48941;49.516;8.286;2022-12-24T08:00:48;100229.66;;;10.10;92.30
62849;BME280;48941;49.516;8.286;2022-12-24T08:03:17;100230.53;;;10.11;92.72
62849;BME280;48941;49.516;8.286;2022-12-24T08:05:46;100227.88;;;10.11;92.78
62849;BME280;48941;49.516;8.286;2022-12-24T08:08:16;100237.19;;;10.16;92.34
62849;BME280;48941;49.516;8.286;2022-12-24T08:10:44;100238.84;;;10.17;91.93
62849;BME280;48941;49.516;8.286;2022-12-24T08:13:12;100244.91;;;10.20;91.82
62849;BME280;48941;49.516;8.286;2022-12-24T08:15:41;100248.28;;;10.22;91.71
62849;BME280;48941;49.516;8.286;2022-12-24T08:18:09;100253.50;;;10.23;91.83
62849;BME280;48941;49.516;8.286;2022-12-24T08:20:38;100247.91;;;10.26;91.91
62849;BME280;48941;49.516;8.286;2022-12-24T08:23:06;100258.44;;;10.28;92.02
62849;BME280;48941;49.516;8.286;2022-12-24T08:25:36;100256.53;;;10.30;91.80
62849;BME280;48941;49.516;8.286;2022-12-24T08:28:04;100246.72;;;10.30;91.73
62849;BME280;48941;49.516;8.286;2022-12-24T08:30:32;100240.44;;;10.31;91.75
62849;BME280;48941;49.516;8.286;2022-12-24T08:33:00;100242.84;;;10.34;91.58
62849;BME280;48941;49.516;8.286;2022-12-24T08:35:28;100243.81;;;10.33;91.70
62849;BME280;48941;49.516;8.286;2022-12-24T08:37:56;100238.09;;;10.38;91.35
62849;BME280;48941;49.516;8.286;2022-12-24T08:40:24;100240.78;;;10.38;91.64
62849;BME280;48941;49.516;8.286;2022-12-24T08:42:54;100242.34;;;10.41;91.22
62849;BME280;48941;49.516;8.286;2022-12-24T08:45:21;100238.47;;;10.45;91.45
62849;BME280;48941;49.516;8.286;2022-12-24T08:47:49;100232.03;;;10.47;90.85
62849;BME280;48941;49.516;8.286;2022-12-24T08:50:17;100248.63;;;10.51;91.17
62849;BME280;48941;49.516;8.286;2022-12-24T08:52:45;100254.38;;;10.56;90.20
62849;BME280;48941;49.516;8.286;2022-12-24T08:55:13;100248.09;;;10.57;90.28
62849;BME280;48941;49.516;8.286;2022-12-24T08:57:42;100258.50;;;10.60;91.05
62849;BME280;48941;49.516;8.286;2022-12-24T09:00:13;100258.38;;;10.62;90.89
62849;BME280;48941;49.516;8.286;2022-12-24T09:02:41;100266.56;;;10.70;90.47
62849;BME280;48941;49.516;8.286;2022-12-24T09:05:09;100273.09;;;10.77;89.94
62849;BME280;48941;49.516;8.286;2022-12-24T09:07:36;100269.66;;;10.86;89.33
62849;BME280;48941;49.516;8.286;2022-12-24T09:10:06;100273.50;;;10.93;89.45
62849;BME280;48941;49.516;8.286;2022-12-24T09:12:34;100273.13;;;10.98;89.03
62849;BME280;48941;49.516;8.286;2022-12-24T09:15:02;100291.13;;;11.06;88.61
62849;BME280;48941;49.516;8.286;2022-12-24T09:17:35;100296.94;;;11.11;88.43
62849;BME280;48941;49.516;8.286;2022-12-24T09:20:04;100297.38;;;11.16;87.69
62849;BME280;48941;49.516;8.286;2022-12-24T09:22:34;100305.53;;;11.14;88.40
62849;BME280;48941;49.516;8.286;2022-12-24T09:25:03;100300.03;;;11.16;87.99
62849;BME280;48941;49.516;8.286;2022-12-24T09:27:31;100312.13;;;11.20;86.95
62849;BME280;48941;49.516;8.286;2022-12-24T09:29:58;100309.94;;;11.25;87.71
62849;BME280;48941;49.516;8.286;2022-12-24T09:32:26;100307.88;;;11.29;87.64
62849;BME280;48941;49.516;8.286;2022-12-24T09:34:56;100314.94;;;11.40;87.51
62849;BME280;48941;49.516;8.286;2022-12-24T09:37:23;100323.28;;;11.46;86.53
62849;BME280;48941;49.516;8.286;2022-12-24T09:39:51;100327.38;;;11.50;86.18
62849;BME280;48941;49.516;8.286;2022-12-24T09:42:27;100324.31;;;11.55;85.55
62849;BME280;48941;49.516;8.286;2022-12-24T09:45:05;100324.75;;;11.60;85.30
62849;BME280;48941;49.516;8.286;2022-12-24T09:47:37;100339.56;;;11.64;84.75
62849;BME280;48941;49.516;8.286;2022-12-24T09:50:30;100336.59;;;11.67;84.77
62849;BME280;48941;49.516;8.286;2022-12-24T09:53:03;100337.06;;;11.72;84.65
62849;BME280;48941;49.516;8.286;2022-12-24T09:55:35;100334.25;;;11.74;84.67
62849;BME280;48941;49.516;8.286;2022-12-24T09:58:05;100331.91;;;11.81;83.25
62849;BME280;48941;49.516;8.286;2022-12-24T10:00:35;100333.88;;;11.79;83.31
62849;BME280;48941;49.516;8.286;2022-12-24T10:03:12;100332.88;;;11.80;82.72
62849;BME280;48941;49.516;8.286;2022-12-24T10:05:48;100335.28;;;11.83;81.19
62849;BME280;48941;49.516;8.286;2022-12-24T10:08:23;100341.16;;;11.76;82.57
62849;BME280;48941;49.516;8.286;2022-12-24T10:10:56;100348.69;;;11.71;82.31
62849;BME280;48941;49.516;8.286;2022-12-24T10:13:38;100345.91;;;11.73;81.19
62849;BME280;48941;49.516;8.286;2022-12-24T10:16:16;100345.91;;;11.73;81.58
62849;BME280;48941;49.516;8.286;2022-12-24T10:18:54;100351.13;;;11.74;81.58
62849;BME280;48941;49.516;8.286;2022-12-24T10:21:30;100354.63;;;11.75;81.20
62849;BME280;48941;49.516;8.286;2022-12-24T10:24:05;100356.19;;;11.77;82.81
62849;BME280;48941;49.516;8.286;2022-12-24T10:26:41;100346.69;;;11.85;82.02
62849;BME280;48941;49.516;8.286;2022-12-24T10:29:14;100350.69;;;11.90;82.04
62849;BME280;48941;49.516;8.286;2022-12-24T10:31:51;100354.63;;;11.96;81.27
62849;BME280;48941;49.516;8.286;2022-12-24T10:34:22;100357.50;;;12.04;81.53
62849;BME280;48941;49.516;8.286;2022-12-24T10:36:52;100350.50;;;12.13;79.76
62849;BME280;48941;49.516;8.286;2022-12-24T10:39:22;100354.41;;;12.09;79.85
62849;BME280;48941;49.516;8.286;2022-12-24T10:41:52;100362.69;;;12.06;80.96
62849;BME280;48941;49.516;8.286;2022-12-24T10:44:25;100361.97;;;12.04;80.45
62849;BME280;48941;49.516;8.286;2022-12-24T10:46:54;100364.22;;;11.99;82.01
62849;BME280;48941;49.516;8.286;2022-12-24T10:49:30;100355.06;;;12.01;82.10
62849;BME280;48941;49.516;8.286;2022-12-24T10:52:05;100352.53;;;12.00;81.29
62849;BME280;48941;49.516;8.286;2022-12-24T10:54:36;100350.00;;;11.98;80.72
62849;BME280;48941;49.516;8.286;2022-12-24T10:57:22;100354.78;;;11.94;81.04
62849;BME280;48941;49.516;8.286;2022-12-24T10:59:53;100358.00;;;11.98;81.09
62849;BME280;48941;49.516;8.286;2022-12-24T11:02:27;100362.50;;;11.98;81.71
62849;BME280;48941;49.516;8.286;2022-12-24T11:04:56;100361.66;;;11.97;81.64
62849;BME280;48941;49.516;8.286;2022-12-24T11:07:28;100359.72;;;11.99;81.01
62849;BME280;48941;49.516;8.286;2022-12-24T11:09:58;100352.22;;;11.93;81.46
62849;BME280;48941;49.516;8.286;2022-12-24T11:12:29;100363.16;;;11.90;81.85
62849;BME280;48941;49.516;8.286;2022-12-24T11:15:02;100356.97;;;11.89;82.09
62849;BME280;48941;49.516;8.286;2022-12-24T11:17:31;100356.56;;;11.94;81.77
62849;BME280;48941;49.516;8.286;2022-12-24T11:20:00;100356.72;;;11.92;82.32
62849;BME280;48941;49.516;8.286;2022-12-24T11:22:31;100364.88;;;11.91;82.39
62849;BME280;48941;49.516;8.286;2022-12-24T11:25:06;100361.19;;;11.92;81.93
62849;BME280;48941;49.516;8.286;2022-12-24T11:27:39;100349.81;;;11.90;82.84
62849;BME280;48941;49.516;8.286;2022-12-24T11:30:20;100356.84;;;11.91;82.12
62849;BME280;48941;49.516;8.286;2022-12-24T11:32:50;100353.47;;;11.89;82.58
62849;BME280;48941;49.516;8.286;2022-12-24T11:35:21;100356.44;;;11.95;81.68
62849;BME280;48941;49.516;8.286;2022-12-24T11:38:08;100348.44;;;11.95;82.20
62849;BME280;48941;49.516;8.286;2022-12-24T11:40:39;100341.03;;;11.99;82.00
62849;BME280;48941;49.516;8.286;2022-12-24T11:43:14;100346.13;;;12.12;81.15
62849;BME280;48941;49.516;8.286;2022-12-24T11:45:48;100347.00;;;12.12;81.58
62849;BME280;48941;49.516;8.286;2022-12-24T11:48:25;100333.94;;;12.19;81.61
62849;BME280;48941;49.516;8.286;2022-12-24T11:50:58;100338.75;;;12.25;80.59
62849;BME280;48941;49.516;8.286;2022-12-24T11:53:33;100340.28;;;12.28;81.39
62849;BME280;48941;49.516;8.286;2022-12-24T11:56:07;100330.50;;;12.38;80.84
62849;BME280;48941;49.516;8.286;2022-12-24T11:58:44;100338.84;;;12.54;80.37
62849;BME280;48941;49.516;8.286;2022-12-24T12:01:16;100331.13;;;12.71;79.67
62849;BME280;48941;49.516;8.286;2022-12-24T12:03:48;100325.66;;;12.82;79.06
62849;BME280;48941;49.516;8.286;2022-12-24T12:06:25;100325.81;;;12.90;78.70
62849;BME280;48941;49.516;8.286;2022-12-24T12:08:59;100322.00;;;12.93;78.79
62849;BME280;48941;49.516;8.286;2022-12-24T12:11:29;100328.91;;;12.95;78.84
62849;BME280;48941;49.516;8.286;2022-12-24T12:14:00;100339.03;;;13.02;76.79
62849;BME280;48941;49.516;8.286;2022-12-24T12:16:36;100338.34;;;13.09;76.84
62849;BME280;48941;49.516;8.286;2022-12-24T12:19:21;100348.44;;;13.06;76.91
62849;BME280;48941;49.516;8.286;2022-12-24T12:21:51;100349.59;;;13.03;77.93
62849;BME280;48941;49.516;8.286;2022-12-24T12:24:24;100337.75;;;13.15;77.39
62849;BME280;48941;49.516;8.286;2022-12-24T12:27:04;100341.72;;;13.21;77.53
62849;BME280;48941;49.516;8.286;2022-12-24T12:29:39;100344.41;;;13.31;77.16
62849;BME280;48941;49.516;8.286;2022-12-24T12:32:13;100339.78;;;13.33;76.15
62849;BME280;48941;49.516;8.286;2022-12-24T12:34:51;100352.84;;;13.26;77.81
62849;BME280;48941;49.516;8.286;2022-12-24T12:37:29;100349.16;;;13.18;77.91
62849;BME280;48941;49.516;8.286;2022-12-24T12:39:59;100353.53;;;13.09;77.89
62849;BME280;48941;49.516;8.286;2022-12-24T12:42:29;100348.19;;;13.09;76.85
62849;BME280;48941;49.516;8.286;2022-12-24T12:45:21;100352.69;;;12.99;77.45
62849;BME280;48941;49.516;8.286;2022-12-24T12:48:09;100360.97;;;12.95;78.51
62849;BME280;48941;49.516;8.286;2022-12-24T12:50:46;100345.63;;;12.88;78.74
62849;BME280;48941;49.516;8.286;2022-12-24T12:53:34;100354.78;;;12.85;78.67
62849;BME280;48941;49.516;8.286;2022-12-24T12:56:13;100345.34;;;12.81;78.81
62849;BME280;48941;49.516;8.286;2022-12-24T12:58:48;100350.41;;;12.74;79.11
62849;BME280;48941;49.516;8.286;2022-12-24T13:01:22;100338.56;;;12.67;79.80
62849;BME280;48941;49.516;8.286;2022-12-24T13:13:27;100361.41;;;12.31;82.61
62849;BME280;48941;49.516;8.286;2022-12-24T13:16:13;100363.34;;;12.29;83.13
62849;BME280;48941;49.516;8.286;2022-12-24T13:18:56;100354.63;;;12.27;83.56
62849;BME280;48941;49.516;8.286;2022-12-24T13:21:28;100353.34;;;12.21;84.72
62849;BME280;48941;49.516;8.286;2022-12-24T13:24:05;100350.66;;;12.21;84.84